Time;durP1;ratioP1;P1;durP2;ratioP2;P2;SDS_P1;SDS_P2;PMS_P1;PMS_P2;Temp;Humidity;BMP_temperature;BMP_pressure;BME280_temperature;BME280_humidity;BME280_pressure;Samples;Min_cycle;Max_cycle;Signal;HPM_P1;HPM_P2
2022/11/17 00:02:22;;;;;;;8.27;6.15;;;;;;;6.61;100.00;94504.19;5076297;28;20050;-70
2022/11/17 00:04:47;;;;;;;7.40;6.05;;;;;;;6.48;100.00;94494.06;5090114;28;20019;-69
2022/11/17 00:07:12;;;;;;;13.75;6.60;;;;;;;6.37;100.00;94479.41;5092119;28;20057;-60
2022/11/17 00:09:38;;;;;;;7.07;5.47;;;;;;;6.30;100.00;94470.50;5083070;28;20027;-66
2022/11/17 00:14:47;;;;;;;5.78;5.28;;;;;;;6.19;100.00;94458.47;5085463;28;20187;-67
2022/11/17 00:17:12;;;;;;;6.65;6.05;;;;;;;6.14;100.00;94437.97;5080881;28;20488;-66
2022/11/17 00:22:23;;;;;;;11.75;6.72;;;;;;;6.19;100.00;94414.03;5074505;28;20051;-66
2022/11/17 00:24:48;;;;;;;9.13;6.18;;;;;;;6.14;100.00;94419.69;5081457;28;20060;-60
2022/11/17 00:27:14;;;;;;;11.07;6.38;;;;;;;6.13;100.00;94422.47;5084702;28;20062;-61
2022/11/17 00:29:39;;;;;;;7.85;5.75;;;;;;;6.14;100.00;94424.09;5083226;28;20086;-60
2022/11/17 00:34:55;;;;;;;8.40;5.38;;;;;;;6.28;100.00;94402.69;5079693;28;20074;-61
2022/11/17 00:37:21;;;;;;;6.43;5.53;;;;;;;6.29;100.00;94417.41;5082539;28;20548;-61
2022/11/17 00:39:47;;;;;;;6.03;5.40;;;;;;;6.32;100.00;94412.88;5084723;28;20020;-61
2022/11/17 00:42:12;;;;;;;6.00;5.32;;;;;;;6.34;100.00;94424.81;5083405;28;20020;-60
2022/11/17 00:44:37;;;;;;;7.78;6.05;;;;;;;6.36;100.00;94432.53;5076511;28;20556;-65
2022/11/17 00:47:03;;;;;;;9.43;5.22;;;;;;;6.38;100.00;94433.19;5073446;28;20486;-66
2022/11/17 00:49:28;;;;;;;5.13;4.68;;;;;;;6.43;100.00;94425.72;5082149;28;20478;-66
2022/11/17 00:51:54;;;;;;;9.48;4.88;;;;;;;6.40;100.00;94420.78;5074365;28;20555;-66
2022/11/17 00:54:21;;;;;;;8.13;5.07;;;;;;;6.45;100.00;94415.94;5081581;28;20040;-66
2022/11/17 00:56:46;;;;;;;9.38;6.60;;;;;;;6.47;100.00;94411.38;5079755;28;20026;-66
2022/11/17 00:59:12;;;;;;;11.55;6.47;;;;;;;6.39;100.00;94399.03;5080377;28;20032;-66
2022/11/17 01:01:38;;;;;;;10.75;7.63;;;;;;;6.48;100.00;94392.09;5068592;28;20032;-66
2022/11/17 01:04:04;;;;;;;10.15;6.90;;;;;;;6.55;100.00;94384.50;5085072;28;20024;-70
2022/11/17 01:06:35;;;;;;;6.95;5.68;;;;;;;6.44;100.00;94370.69;5072490;28;20108;-53
2022/11/17 01:09:05;;;;;;;9.07;6.13;;;;;;;6.49;100.00;94364.97;5080992;28;20494;-49
2022/11/17 01:11:31;;;;;;;11.25;6.85;;;;;;;6.53;100.00;94376.81;5078921;28;20409;-53
2022/11/17 01:13:59;;;;;;;8.98;6.82;;;;;;;6.52;100.00;94395.25;5087014;28;20024;-53
2022/11/17 01:16:26;;;;;;;5.07;4.60;;;;;;;6.72;100.00;94428.13;5077264;28;20024;-49
2022/11/17 01:18:52;;;;;;;8.45;4.85;;;;;;;6.81;100.00;94409.88;5085008;28;20024;-53
2022/11/17 01:21:23;;;;;;;6.55;4.43;;;;;;;6.75;100.00;94432.25;5078304;28;20098;-58
2022/11/17 01:23:51;;;;;;;10.18;4.90;;;;;;;6.71;100.00;94455.28;5082877;28;20043;-58
2022/11/17 01:26:18;;;;;;;7.85;4.20;;;;;;;6.75;100.00;94450.56;5078587;28;20031;-60
2022/11/17 01:28:44;;;;;;;5.07;4.32;;;;;;;6.77;100.00;94453.03;5087928;28;20077;-60
2022/11/17 01:31:12;;;;;;;4.50;4.10;;;;;;;6.79;100.00;94462.38;5089335;28;20471;-60
2022/11/17 01:33:38;;;;;;;5.15;4.30;;;;;;;6.74;100.00;94472.44;5078453;28;20031;-60
2022/11/17 01:36:07;;;;;;;4.63;4.18;;;;;;;6.85;100.00;94480.09;5085045;28;20024;-60
2022/11/17 01:38:32;;;;;;;5.20;4.22;;;;;;;6.80;100.00;94484.94;5087029;28;20034;-60
2022/11/17 01:41:02;;;;;;;5.18;4.20;;;;;;;6.77;100.00;94482.63;5083408;28;20037;-64
2022/11/17 01:43:49;;;;;;;6.03;4.60;;;;;;;6.73;100.00;94469.03;5084076;28;20028;-60
2022/11/17 01:46:31;;;;;;;5.45;4.55;;;;;;;6.92;100.00;94445.47;5082400;28;20033;-50
2022/11/17 01:49:09;;;;;;;4.82;4.28;;;;;;;6.95;100.00;94439.94;5079055;28;20028;-53
2022/11/17 01:51:39;;;;;;;4.40;4.00;;;;;;;6.82;100.00;94433.28;5076648;28;20046;-51
2022/11/17 01:54:06;;;;;;;4.63;4.20;;;;;;;6.78;100.00;94429.34;5075546;28;20073;-53
2022/11/17 01:56:37;;;;;;;3.75;3.45;;;;;;;6.75;100.00;94440.09;5078545;28;20116;-52
2022/11/17 01:59:21;;;;;;;5.18;2.83;;;;;;;6.81;100.00;94436.06;5079456;28;20032;-51
2022/11/17 02:01:57;;;;;;;3.13;2.90;;;;;;;6.81;100.00;94436.06;5084076;28;20103;-58
2022/11/17 02:04:29;;;;;;;3.97;3.15;;;;;;;6.81;100.00;94420.34;5083923;28;20032;-58
2022/11/17 02:07:10;;;;;;;4.95;3.67;;;;;;;6.80;100.00;94430.00;5074100;28;20036;-59
2022/11/17 02:09:38;;;;;;;3.45;3.17;;;;;;;6.81;100.00;94434.28;5079788;28;20032;-58
2022/11/17 02:12:07;;;;;;;3.50;3.17;;;;;;;6.87;100.00;94425.81;5080687;28;20098;-58
2022/11/17 02:14:33;;;;;;;3.47;3.05;;;;;;;7.08;100.00;94434.34;5087284;28;20046;-58
2022/11/17 02:16:58;;;;;;;5.10;3.17;;;;;;;7.24;100.00;94426.59;5084079;28;20076;-58
2022/11/17 02:19:27;;;;;;;4.57;3.03;;;;;;;7.48;100.00;94453.13;5083280;28;20036;-58
2022/11/17 02:22:08;;;;;;;3.35;3.00;;;;;;;7.24;100.00;94460.63;5083405;28;20497;-59
2022/11/17 02:25:02;;;;;;;3.80;3.15;;;;;;;7.13;100.00;94482.63;5080188;28;20024;-52
2022/11/17 02:28:01;;;;;;;3.13;2.88;;;;;;;7.06;100.00;94499.91;5086721;28;20118;-53
2022/11/17 02:30:40;;;;;;;2.90;2.70;;;;;;;7.07;100.00;94501.56;5082965;28;20436;-52
2022/11/17 02:33:37;;;;;;;3.25;3.05;;;;;;;7.09;100.00;94514.50;5078030;28;20064;-53
2022/11/17 02:36:02;;;;;;;4.60;3.45;;;;;;;7.08;100.00;94531.19;5081049;28;20068;-53
2022/11/17 02:38:43;;;;;;;4.00;3.65;;;;;;;6.97;100.00;94553.16;5088978;28;20073;-58
2022/11/17 02:41:25;;;;;;;4.90;4.03;;;;;;;6.88;100.00;94567.94;5087043;28;20102;-59
2022/11/17 02:44:05;;;;;;;4.07;3.67;;;;;;;6.84;100.00;94577.03;5080838;28;20725;-58
2022/11/17 02:46:56;;;;;;;5.18;3.50;;;;;;;6.80;100.00;94584.38;5083080;28;20103;-59
2022/11/17 02:49:30;;;;;;;3.70;3.40;;;;;;;6.81;100.00;94572.94;5049487;28;20563;-59
2022/11/17 02:51:57;;;;;;;5.30;3.67;;;;;;;6.84;100.00;94570.00;5078375;28;20414;-58
2022/11/17 02:54:25;;;;;;;4.03;3.72;;;;;;;7.03;100.00;94531.63;5086103;28;20477;-58
2022/11/17 02:56:51;;;;;;;3.60;3.30;;;;;;;6.91;100.00;94514.47;5076152;28;20028;-58
2022/11/17 02:59:21;;;;;;;4.30;3.65;;;;;;;6.88;100.00;94503.34;5077850;28;20029;-58
2022/11/17 03:02:07;;;;;;;4.18;3.88;;;;;;;6.83;100.00;94495.13;5078366;28;20024;-60
2022/11/17 03:04:40;;;;;;;4.85;3.38;;;;;;;6.86;100.00;94489.59;5081139;28;20039;-60
2022/11/17 03:07:08;;;;;;;2.92;2.65;;;;;;;6.92;100.00;94488.16;5082278;28;20028;-60
2022/11/17 03:09:39;;;;;;;3.65;3.35;;;;;;;6.91;100.00;94476.06;5078537;28;20046;-60
2022/11/17 03:12:15;;;;;;;3.72;2.95;;;;;;;6.95;100.00;94471.31;5083458;28;20106;-60
2022/11/17 03:14:57;;;;;;;3.33;2.97;;;;;;;7.00;100.00;94475.16;5085872;28;20566;-60
2022/11/17 03:18:01;;;;;;;3.55;3.15;;;;;;;7.00;100.00;94479.56;5085286;28;20031;-71
2022/11/17 03:20:38;;;;;;;3.05;2.85;;;;;;;6.98;100.00;94466.63;5067573;28;20036;-54
2022/11/17 03:23:10;;;;;;;2.80;2.60;;;;;;;7.05;100.00;94469.47;5084548;28;20028;-67
2022/11/17 03:25:38;;;;;;;5.05;2.90;;;;;;;7.06;100.00;94454.59;5092388;28;20034;-66
2022/11/17 03:28:08;;;;;;;2.90;2.60;;;;;;;7.03;100.00;94453.09;5086265;28;20020;-67
2022/11/17 03:30:37;;;;;;;3.53;2.95;;;;;;;7.11;100.00;94462.81;5086881;28;20553;-67
2022/11/17 03:33:09;;;;;;;3.28;2.72;;;;;;;7.09;100.00;94454.31;5082247;28;20075;-67
2022/11/17 03:35:39;;;;;;;3.22;3.00;;;;;;;7.04;100.00;94454.75;5079493;28;20038;-67
2022/11/17 03:38:11;;;;;;;5.88;5.20;;;;;;;7.05;100.00;94466.03;5081716;28;20113;-67
2022/11/17 03:40:42;;;;;;;4.00;3.35;;;;;;;7.05;100.00;94469.47;5082381;28;20029;-61
2022/11/17 03:43:11;;;;;;;3.70;2.97;;;;;;;7.18;100.00;94469.09;5084560;28;20402;-61
2022/11/17 03:45:43;;;;;;;3.63;3.33;;;;;;;7.12;100.00;94465.28;5079492;28;20020;-60
2022/11/17 03:48:35;;;;;;;8.07;4.28;;;;;;;7.21;100.00;94466.16;5081122;28;20025;-60
2022/11/17 03:51:08;;;;;;;5.25;4.75;;;;;;;7.06;100.00;94465.03;5085570;28;20083;-60
2022/11/17 03:53:34;;;;;;;6.13;5.53;;;;;;;6.92;100.00;94469.03;5079769;28;20040;-61
2022/11/17 03:56:24;;;;;;;6.65;6.05;;;;;;;6.84;100.00;94478.44;5075306;28;20028;-58
2022/11/17 03:58:58;;;;;;;7.13;6.40;;;;;;;6.80;100.00;94484.13;5084189;28;20074;-60
2022/11/17 04:01:27;;;;;;;7.63;6.30;;;;;;;6.77;100.00;94476.56;5085439;28;20028;-71
2022/11/17 04:03:53;;;;;;;9.85;7.28;;;;;;;6.73;100.00;94469.03;5076407;28;20410;-70
2022/11/17 04:06:18;;;;;;;6.80;6.25;;;;;;;6.87;100.00;94474.72;5085460;28;20036;-70
2022/11/17 04:08:43;;;;;;;7.18;5.90;;;;;;;6.87;100.00;94477.34;5080633;28;20112;-70
2022/11/17 04:16:37;;;;;;;9.07;6.38;;;;;;;6.85;100.00;94456.53;5079924;28;20074;-61
2022/11/17 04:19:02;;;;;;;7.65;6.57;;;;;;;6.82;100.00;94467.31;5081187;28;20024;-70
2022/11/17 04:21:28;;;;;;;11.10;7.13;;;;;;;6.77;100.00;94477.41;5087597;28;20119;-70
2022/11/17 04:23:53;;;;;;;11.48;7.13;;;;;;;6.75;100.00;94476.72;5080603;28;20059;-70
2022/11/17 04:29:02;;;;;;;10.32;6.72;;;;;;;6.85;100.00;94461.78;5078849;28;20031;-70
2022/11/17 04:31:30;;;;;;;7.75;6.80;;;;;;;6.78;100.00;94473.81;5085593;28;20134;-70
2022/11/17 04:33:57;;;;;;;8.13;7.32;;;;;;;6.82;100.00;94463.84;5080631;28;20024;-70
2022/11/17 04:36:25;;;;;;;8.35;6.38;;;;;;;6.78;100.00;94470.38;5079851;28;20047;-60
2022/11/17 04:38:54;;;;;;;8.48;6.55;;;;;;;6.72;100.00;94493.53;5086298;28;20031;-57
2022/11/17 04:44:07;;;;;;;7.20;6.50;;;;;;;6.77;100.00;94500.94;5094329;28;20039;-57
2022/11/17 04:46:34;;;;;;;6.32;5.72;;;;;;;6.73;100.00;94510.03;5083927;28;20028;-58
2022/11/17 04:49:00;;;;;;;6.45;5.80;;;;;;;6.72;100.00;94511.00;5078835;28;20610;-57
2022/11/17 04:51:27;;;;;;;6.47;5.78;;;;;;;6.72;100.00;94501.38;5074281;28;20115;-58
2022/11/17 04:53:53;;;;;;;6.97;6.05;;;;;;;6.88;100.00;94492.88;5078028;28;20039;-60
2022/11/17 04:56:19;;;;;;;6.30;5.70;;;;;;;6.93;100.00;94494.22;5089501;28;20024;-60
2022/11/17 04:58:46;;;;;;;7.90;6.07;;;;;;;6.80;100.00;94489.34;5089816;28;20485;-60
2022/11/17 05:01:11;;;;;;;7.03;6.30;;;;;;;6.75;100.00;94479.34;5088402;28;20028;-60
2022/11/17 05:04:06;;;;;;;6.68;6.05;;;;;;;6.71;100.00;94452.66;5080488;28;20404;-60
2022/11/17 05:06:38;;;;;;;6.90;6.33;;;;;;;6.79;100.00;94445.84;5074456;28;20082;-60
2022/11/17 05:09:12;;;;;;;8.65;7.85;;;;;;;6.71;100.00;94460.50;5082110;28;20315;-60
2022/11/17 05:14:23;;;;;;;7.30;6.10;;;;;;;6.66;100.00;94456.69;5074875;28;20098;-58
2022/11/17 05:17:04;;;;;;;6.13;5.57;;;;;;;6.69;100.00;94465.06;5080190;28;20103;-61
2022/11/17 05:19:35;;;;;;;7.15;6.45;;;;;;;6.69;100.00;94472.06;5077589;28;20570;-61
2022/11/17 05:22:01;;;;;;;8.50;7.60;;;;;;;6.68;100.00;94466.03;5083316;28;20099;-60
2022/11/17 05:24:26;;;;;;;7.95;6.70;;;;;;;6.70;100.00;94479.78;5082321;28;20170;-60
2022/11/17 05:26:52;;;;;;;9.02;5.95;;;;;;;6.71;100.00;94465.72;5068358;28;20078;-62
2022/11/17 05:29:19;;;;;;;9.73;8.57;;;;;;;6.71;100.00;94467.50;5084074;28;20025;-62
2022/11/17 05:31:46;;;;;;;9.32;7.82;;;;;;;6.80;100.00;94484.94;5076228;28;20067;-64
2022/11/17 05:34:13;;;;;;;13.55;12.25;;;;;;;6.78;100.00;94480.81;5058416;28;20401;-60
2022/11/17 05:36:39;;;;;;;13.20;11.85;;;;;;;6.78;100.00;94458.13;5083052;28;20026;-59
2022/11/17 05:39:04;;;;;;;10.32;9.13;;;;;;;6.87;100.00;94464.25;5077188;28;20028;-59
2022/11/17 05:41:30;;;;;;;7.90;7.10;;;;;;;6.84;100.00;94460.13;5082950;28;20028;-59
2022/11/17 05:43:56;;;;;;;7.97;7.28;;;;;;;6.92;100.00;94443.69;5089718;28;20034;-59
2022/11/17 05:46:22;;;;;;;7.18;6.45;;;;;;;6.86;100.00;94458.19;5089280;28;20016;-59
2022/11/17 05:48:51;;;;;;;7.07;6.43;;;;;;;6.84;100.00;94457.50;5082831;28;20082;-60
2022/11/17 05:51:22;;;;;;;6.65;6.05;;;;;;;6.86;100.00;94462.63;5083406;28;20103;-55
2022/11/17 05:53:48;;;;;;;7.30;6.50;;;;;;;6.80;100.00;94463.19;5089391;28;20477;-59
2022/11/17 05:56:29;;;;;;;6.97;5.47;;;;;;;6.77;100.00;94466.94;5089158;28;20481;-60
2022/11/17 05:59:01;;;;;;;6.20;5.60;;;;;;;6.75;100.00;94455.81;5089409;28;20020;-60
2022/11/17 06:01:28;;;;;;;7.53;6.22;;;;;;;6.73;100.00;94462.94;5089129;28;20030;-60
2022/11/17 06:03:56;;;;;;;7.53;5.97;;;;;;;6.71;100.00;94457.88;5089120;28;20576;-60
2022/11/17 06:06:22;;;;;;;74.15;47.95;;;;;;;6.71;100.00;94454.44;5091213;28;20020;-59
2022/11/17 06:08:48;;;;;;;43.97;27.23;;;;;;;6.72;100.00;94454.28;5092832;28;20083;-59
2022/11/17 06:11:15;;;;;;;25.40;16.83;;;;;;;6.78;100.00;94467.75;5092283;28;20020;-60
2022/11/17 06:13:41;;;;;;;22.75;15.73;;;;;;;6.81;100.00;94468.28;5092592;28;20035;-55
2022/11/17 06:16:10;;;;;;;12.13;10.02;;;;;;;6.82;100.00;94471.69;5089554;28;20020;-53
2022/11/17 06:18:44;;;;;;;11.82;8.55;;;;;;;6.83;100.00;94471.56;5091867;28;20482;-55
2022/11/17 06:21:12;;;;;;;12.05;7.82;;;;;;;6.82;100.00;94480.38;5079925;28;20082;-53
2022/11/17 06:23:37;;;;;;;8.18;7.43;;;;;;;6.82;100.00;94483.00;5076702;28;20579;-53
2022/11/17 06:26:06;;;;;;;11.32;6.72;;;;;;;6.90;100.00;94484.88;5072112;28;20032;-55
2022/11/17 06:28:34;;;;;;;6.90;6.30;;;;;;;6.89;100.00;94478.00;5080704;28;20597;-54
2022/11/17 06:30:59;;;;;;;7.03;6.35;;;;;;;6.90;100.00;94490.13;5072608;28;20537;-67
2022/11/17 06:33:28;;;;;;;7.15;6.45;;;;;;;6.92;100.00;94489.94;5073838;28;20139;-59
2022/11/17 06:35:54;;;;;;;6.93;6.32;;;;;;;6.92;100.00;94503.88;5071745;28;20038;-60
2022/11/17 06:38:19;;;;;;;10.40;7.72;;;;;;;6.92;100.00;94510.88;5073003;28;20103;-60
2022/11/17 06:40:45;;;;;;;8.52;7.22;;;;;;;6.91;100.00;94497.00;5085514;28;20688;-59
2022/11/17 06:43:10;;;;;;;8.45;6.88;;;;;;;6.93;100.00;94504.69;5092642;28;20027;-59
2022/11/17 06:45:46;;;;;;;7.65;6.72;;;;;;;6.94;100.00;94495.84;5073460;28;20020;-59
2022/11/17 06:48:14;;;;;;;8.18;7.35;;;;;;;6.96;100.00;94499.13;5074008;28;20021;-60
2022/11/17 06:50:40;;;;;;;12.60;8.50;;;;;;;6.95;100.00;94489.66;5075879;28;20020;-70
2022/11/17 06:53:07;;;;;;;8.15;6.85;;;;;;;7.00;100.00;94480.38;5071521;28;20047;-63
2022/11/17 06:55:33;;;;;;;13.75;6.30;;;;;;;6.98;100.00;94481.53;5073688;28;20043;-64
2022/11/17 06:58:07;;;;;;;10.93;6.28;;;;;;;7.05;100.00;94487.78;5072865;28;20056;-63
2022/11/17 07:00:36;;;;;;;7.10;5.75;;;;;;;7.10;100.00;94490.78;5075130;28;20028;-61
2022/11/17 07:03:08;;;;;;;6.63;5.05;;;;;;;7.10;100.00;94490.78;5092182;28;20060;-62
2022/11/17 07:05:34;;;;;;;8.20;7.40;;;;;;;7.13;100.00;94495.72;5084187;28;20021;-61
2022/11/17 07:08:02;;;;;;;9.75;6.05;;;;;;;7.19;100.00;94503.97;5072502;28;20028;-61
2022/11/17 07:10:29;;;;;;;5.35;4.95;;;;;;;7.23;100.00;94521.00;5074313;28;20024;-66
2022/11/17 07:12:54;;;;;;;6.30;5.70;;;;;;;7.26;100.00;94518.88;5071347;28;20041;-60
2022/11/17 07:15:21;;;;;;;9.15;6.70;;;;;;;7.21;100.00;94513.28;5089612;28;20070;-59
2022/11/17 07:17:47;;;;;;;8.55;7.70;;;;;;;7.10;100.00;94527.41;5096757;28;20576;-60
2022/11/17 07:20:13;;;;;;;10.27;7.38;;;;;;;7.05;100.00;94516.59;5097217;28;20099;-59
2022/11/17 07:22:40;;;;;;;8.25;6.63;;;;;;;7.06;100.00;94531.31;5091749;28;20028;-59
2022/11/17 07:25:05;;;;;;;8.18;7.03;;;;;;;7.01;100.00;94544.84;5082463;28;20031;-59
2022/11/17 07:27:31;;;;;;;7.05;6.47;;;;;;;7.17;100.00;94557.25;5091821;28;20016;-55
2022/11/17 07:29:57;;;;;;;8.60;6.80;;;;;;;7.28;100.00;94568.50;5091401;28;20615;-67
2022/11/17 07:32:23;;;;;;;12.57;8.40;;;;;;;7.19;100.00;94557.13;5091782;28;20068;-60
2022/11/17 07:34:48;;;;;;;10.35;7.75;;;;;;;7.21;100.00;94554.38;5086547;28;20032;-60
2022/11/17 07:37:14;;;;;;;9.35;7.78;;;;;;;7.20;100.00;94531.78;5053829;28;20080;-60
2022/11/17 07:39:39;;;;;;;9.63;7.30;;;;;;;7.27;100.00;94517.09;5071799;28;20185;-59
2022/11/17 07:42:05;;;;;;;11.10;8.00;;;;;;;7.36;100.00;94516.19;5076998;28;20092;-60
2022/11/17 07:44:30;;;;;;;8.82;7.80;;;;;;;7.37;100.00;94501.31;5091544;28;20081;-60
2022/11/17 07:46:56;;;;;;;10.88;9.48;;;;;;;7.31;100.00;94503.56;5085943;28;20024;-59
2022/11/17 07:49:22;;;;;;;10.10;7.40;;;;;;;7.34;100.00;94502.44;5083377;28;20032;-60
2022/11/17 07:51:47;;;;;;;7.93;7.00;;;;;;;7.26;100.00;94505.00;5073468;28;20035;-59
2022/11/17 07:54:12;;;;;;;8.18;7.28;;;;;;;7.24;100.00;94515.59;5071366;28;20528;-59
2022/11/17 07:56:38;;;;;;;7.68;6.60;;;;;;;7.25;100.00;94519.06;5089304;28;20020;-59
2022/11/17 07:59:03;;;;;;;10.23;8.85;;;;;;;7.25;100.00;94522.47;5090946;28;20019;-59
2022/11/17 08:01:28;;;;;;;10.55;8.68;;;;;;;7.29;100.00;94536.09;5090338;28;20022;-59
2022/11/17 08:03:54;;;;;;;8.35;7.53;;;;;;;7.35;100.00;94525.03;5090811;28;20470;-59
2022/11/17 08:06:22;;;;;;;8.32;7.53;;;;;;;7.37;100.00;94533.53;5089707;28;20028;-67
2022/11/17 08:08:48;;;;;;;11.75;8.07;;;;;;;7.42;100.00;94527.88;5090752;28;20024;-62
2022/11/17 08:11:14;;;;;;;8.40;7.20;;;;;;;7.40;100.00;94529.81;5089821;28;20030;-62
2022/11/17 08:13:40;;;;;;;8.73;6.85;;;;;;;7.38;100.00;94514.25;5089378;28;20104;-62
2022/11/17 08:16:07;;;;;;;7.38;6.68;;;;;;;7.42;100.00;94505.13;5087327;28;20111;-62
2022/11/17 08:18:33;;;;;;;7.03;6.43;;;;;;;7.43;100.00;94511.19;5073013;28;20111;-62
2022/11/17 08:21:06;;;;;;;8.15;7.15;;;;;;;7.46;100.00;94518.72;5088846;28;20107;-62
2022/11/17 08:23:32;;;;;;;11.85;7.30;;;;;;;7.56;100.00;94526.50;5072701;28;20046;-62
2022/11/17 08:25:57;;;;;;;7.03;6.32;;;;;;;7.47;100.00;94515.13;5071150;28;20021;-59
2022/11/17 08:28:23;;;;;;;8.15;7.13;;;;;;;7.58;100.00;94527.16;5071643;28;20531;-62
2022/11/17 08:30:49;;;;;;;8.27;7.03;;;;;;;7.57;100.00;94534.22;5071533;28;20021;-59
2022/11/17 08:33:14;;;;;;;8.68;7.78;;;;;;;7.43;100.00;94532.97;5075052;28;20109;-60
2022/11/17 08:35:40;;;;;;;8.45;7.65;;;;;;;7.35;100.00;94543.34;5061565;28;20497;-59
2022/11/17 08:38:05;;;;;;;8.98;8.10;;;;;;;7.31;100.00;94535.00;5083815;28;20035;-60
2022/11/17 08:40:31;;;;;;;9.95;8.98;;;;;;;7.39;100.00;94536.84;5070649;28;20033;-60
2022/11/17 08:42:57;;;;;;;11.00;9.52;;;;;;;7.47;100.00;94543.94;5082520;28;20035;-60
2022/11/17 08:45:23;;;;;;;9.07;8.27;;;;;;;7.47;100.00;94545.75;5071907;28;20024;-67
2022/11/17 08:47:48;;;;;;;10.90;9.90;;;;;;;7.43;100.00;94547.84;5070669;28;20543;-60
2022/11/17 08:50:14;;;;;;;9.90;9.07;;;;;;;7.41;100.00;94537.53;5070608;28;20031;-60
2022/11/17 08:52:39;;;;;;;9.48;7.53;;;;;;;7.50;100.00;94534.97;5070525;28;20107;-60
2022/11/17 08:55:05;;;;;;;8.68;7.88;;;;;;;7.65;100.00;94519.53;5070486;28;20066;-60
2022/11/17 08:57:31;;;;;;;8.70;7.88;;;;;;;7.70;100.00;94522.50;5070370;28;20055;-60
2022/11/17 08:59:57;;;;;;;10.05;8.35;;;;;;;7.67;100.00;94528.88;5070827;28;20553;-60
2022/11/17 09:02:23;;;;;;;8.80;7.25;;;;;;;7.62;100.00;94512.78;5070747;28;20100;-60
2022/11/17 09:04:49;;;;;;;9.57;8.45;;;;;;;7.62;100.00;94518.03;5070514;28;20021;-62
2022/11/17 09:07:14;;;;;;;10.32;9.02;;;;;;;7.61;100.00;94539.94;5082683;28;20602;-67
2022/11/17 09:09:40;;;;;;;11.80;8.95;;;;;;;7.57;100.00;94536.00;5070965;28;20035;-68
2022/11/17 09:12:06;;;;;;;9.60;8.63;;;;;;;7.66;100.00;94527.25;5070441;28;20032;-68
2022/11/17 09:14:31;;;;;;;11.32;8.07;;;;;;;7.79;100.00;94531.25;5070624;28;20032;-68
2022/11/17 09:16:56;;;;;;;10.77;7.82;;;;;;;7.90;100.00;94528.38;5082720;28;20035;-67
2022/11/17 09:19:22;;;;;;;8.95;7.97;;;;;;;8.03;100.00;94523.53;5071505;28;20504;-68
2022/11/17 09:21:47;;;;;;;9.02;8.07;;;;;;;8.19;100.00;94516.75;5087387;28;20016;-68
2022/11/17 09:24:13;;;;;;;8.52;7.55;;;;;;;8.37;100.00;94518.47;5078597;28;20116;-57
2022/11/17 09:26:39;;;;;;;7.32;6.63;;;;;;;8.50;100.00;94518.88;5069753;28;20478;-61
2022/11/17 09:29:06;;;;;;;9.20;6.45;;;;;;;8.66;100.00;94523.38;5070115;28;20056;-62
2022/11/17 09:31:31;;;;;;;6.28;5.32;;;;;;;8.74;100.00;94525.22;5069447;28;20545;-62
2022/11/17 09:33:57;;;;;;;5.78;5.28;;;;;;;8.90;100.00;94527.06;5081604;28;20044;-61
2022/11/17 09:36:22;;;;;;;5.70;4.78;;;;;;;8.94;100.00;94527.53;5088940;28;20020;-61
2022/11/17 09:38:47;;;;;;;9.35;6.65;;;;;;;9.05;100.00;94527.25;5089482;28;20493;-61
2022/11/17 09:41:20;;;;;;;6.72;6.22;;;;;;;9.06;100.00;94515.78;5088461;28;20046;-61
2022/11/17 09:43:58;;;;;;;6.78;6.13;;;;;;;9.08;100.00;94513.81;5089271;28;20023;-69
2022/11/17 09:46:43;;;;;;;5.32;4.82;;;;;;;9.07;100.00;94508.72;5075820;28;20102;-58
2022/11/17 09:49:29;;;;;;;6.13;5.30;;;;;;;8.96;100.00;94509.84;5069361;28;20035;-57
2022/11/17 09:51:56;;;;;;;;;;;;;;;8.97;100.00;94499.19;5077344;28;20392;-57
2022/11/17 09:54:37;;;;;;;7.40;5.80;;;;;;;8.96;100.00;94505.41;5073417;28;20389;-58
2022/11/17 09:57:04;;;;;;;7.90;6.15;;;;;;;9.04;100.00;94496.75;5082566;28;20033;-58
2022/11/17 09:59:32;;;;;;;7.88;6.72;;;;;;;9.07;100.00;94493.78;5076129;28;20020;-57
2022/11/17 10:01:57;;;;;;;9.00;6.60;;;;;;;9.09;100.00;94497.06;5075039;28;20028;-69
2022/11/17 10:04:28;;;;;;;7.82;6.05;;;;;;;9.14;100.00;94494.75;5075838;28;20031;-62
2022/11/17 10:06:53;;;;;;;6.78;6.15;;;;;;;9.17;100.00;94496.25;5073839;28;20070;-68
2022/11/17 10:09:40;;;;;;;9.30;6.60;;;;;;;9.22;100.00;94490.53;5076686;28;20020;-69
2022/11/17 10:12:24;;;;;;;6.75;6.10;;;;;;;9.22;100.00;94490.53;5073522;28;20025;-69
2022/11/17 10:14:50;;;;;;;7.10;6.50;;;;;;;9.27;100.00;94481.16;5073178;28;20495;-68
2022/11/17 10:17:16;;;;;;;7.13;6.10;;;;;;;9.35;100.00;94480.34;5074734;28;20490;-68
2022/11/17 10:19:44;;;;;;;8.18;6.70;;;;;;;9.41;100.00;94478.88;5074569;28;20029;-68
2022/11/17 10:22:09;;;;;;;7.15;6.32;;;;;;;9.58;100.00;94464.75;5088949;28;20028;-62
2022/11/17 10:24:34;;;;;;;7.85;6.80;;;;;;;9.55;100.00;94472.13;5087735;28;20039;-69
2022/11/17 10:27:02;;;;;;;6.55;6.00;;;;;;;9.52;100.00;94460.16;5069396;28;20036;-68
2022/11/17 10:29:27;;;;;;;10.15;5.80;;;;;;;9.57;100.00;94472.78;5069724;28;20025;-69
2022/11/17 10:31:53;;;;;;;8.45;6.38;;;;;;;9.63;100.00;94466.03;5069532;28;20118;-69
2022/11/17 10:34:33;;;;;;;6.75;5.10;;;;;;;9.71;100.00;94468.66;5069968;28;20025;-68
2022/11/17 10:37:21;;;;;;;6.00;5.50;;;;;;;9.77;100.00;94473.25;5074290;28;20036;-68
2022/11/17 10:39:46;;;;;;;8.68;5.80;;;;;;;9.93;100.00;94461.88;5070906;28;20086;-57
2022/11/17 10:42:17;;;;;;;10.30;7.30;;;;;;;9.97;100.00;94454.50;5075732;28;20493;-61
2022/11/17 10:44:50;;;;;;;8.80;7.78;;;;;;;10.04;100.00;94455.44;5075747;28;20024;-59
2022/11/17 10:47:36;;;;;;;11.73;6.72;;;;;;;10.14;100.00;94460.53;5076758;28;20611;-59
2022/11/17 10:50:17;;;;;;;6.28;5.68;;;;;;;10.09;100.00;94452.31;5087809;28;20028;-59
2022/11/17 10:52:43;;;;;;;8.60;5.32;;;;;;;10.13;100.00;94464.94;5090565;28;20032;-59
2022/11/17 10:55:31;;;;;;;5.60;4.82;;;;;;;10.16;100.00;94485.63;5091474;28;20047;-60
2022/11/17 10:58:07;;;;;;;6.15;5.32;;;;;;;10.17;100.00;94462.81;5091082;28;20028;-59
2022/11/17 11:00:35;;;;;;;5.95;5.35;;;;;;;10.12;100.00;94449.34;5092442;28;20533;-69
2022/11/17 11:03:03;;;;;;;6.65;5.50;;;;;;;10.27;100.00;94454.72;5091590;28;20104;-59
2022/11/17 11:05:28;;;;;;;7.55;5.60;;;;;;;10.36;100.00;94451.06;5092312;28;20051;-59
2022/11/17 11:08:16;;;;;;;6.10;5.22;;;;;;;10.37;100.00;94450.06;5091813;28;20051;-59
2022/11/17 11:10:42;;;;;;;9.60;5.82;;;;;;;10.55;100.00;94443.75;5091933;28;20446;-58
2022/11/17 11:13:29;;;;;;;11.52;5.15;;;;;;;10.70;100.00;94436.78;5092747;28;20028;-59
2022/11/17 11:15:54;;;;;;;4.65;4.13;;;;;;;10.84;100.00;94435.22;5077575;28;20046;-59
2022/11/17 11:18:20;;;;;;;3.60;3.30;;;;;;;10.85;100.00;94431.59;5092240;28;20028;-57
2022/11/17 11:21:03;;;;;;;3.97;3.67;;;;;;;10.82;100.00;94428.47;5091360;28;20024;-56
2022/11/17 11:23:34;;;;;;;4.05;3.63;;;;;;;10.85;100.00;94423.69;5073433;28;20077;-68
2022/11/17 11:26:21;;;;;;;6.65;4.57;;;;;;;11.06;100.00;94405.63;5072162;28;20029;-69
2022/11/17 11:29:03;;;;;;;4.03;3.72;;;;;;;11.11;100.00;94401.44;5072067;28;20020;-68
2022/11/17 11:32:01;;;;;;;5.95;3.70;;;;;;;11.12;100.00;94394.38;5084805;28;20076;-68
2022/11/17 11:35:02;;;;;;;6.93;4.60;;;;;;;11.14;100.00;94395.81;5072141;28;20031;-68
2022/11/17 11:37:42;;;;;;;4.75;3.88;;;;;;;11.31;100.00;94400.94;5072735;28;20517;-61
2022/11/17 11:40:25;;;;;;;4.05;3.65;;;;;;;11.36;100.00;94389.88;5082664;28;20028;-59
2022/11/17 11:42:57;;;;;;;4.55;3.90;;;;;;;11.40;100.00;94384.09;5082765;28;20517;-59
2022/11/17 11:45:54;;;;;;;3.83;3.53;;;;;;;11.44;100.00;94379.25;5072478;28;20021;-59
2022/11/17 11:48:25;;;;;;;5.30;3.55;;;;;;;11.53;100.00;94372.94;5071770;28;20085;-59
2022/11/17 11:50:53;;;;;;;6.90;5.05;;;;;;;11.54;100.00;94371.09;5071665;28;20382;-59
2022/11/17 11:53:43;;;;;;;6.43;5.38;;;;;;;11.55;100.00;94370.09;5071824;28;20101;-59
2022/11/17 11:56:32;;;;;;;8.85;4.93;;;;;;;11.64;100.00;94373.47;5072200;28;20120;-59
2022/11/17 11:59:06;;;;;;;7.30;6.28;;;;;;;11.69;100.00;94377.22;5071933;28;20020;-61
2022/11/17 12:01:52;;;;;;;11.93;5.80;;;;;;;11.68;100.00;94375.56;5090313;28;20023;-62
2022/11/17 12:04:29;;;;;;;7.43;5.60;;;;;;;11.70;100.00;94364.81;5090080;28;20028;-62
2022/11/17 12:07:06;;;;;;;6.18;5.32;;;;;;;11.75;100.00;94359.84;5091062;28;20024;-62
2022/11/17 12:09:38;;;;;;;7.40;5.30;;;;;;;11.80;100.00;94360.13;5090242;28;20016;-62